Time;durP1;ratioP1;P1;durP2;ratioP2;P2;SDS_P1;SDS_P2;PMS_P1;PMS_P2;Temp;Humidity;BMP_temperature;BMP_pressure;BME280_temperature;BME280_humidity;BME280_pressure;Samples;Min_cycle;Max_cycle;Signal;HPM_P1;HPM_P2
2022/09/01 00:01:07;;;;;;;5.43;4.43;;;;;;;;;;5128211;27;20203;-32
2022/09/01 00:03:35;;;;;;;4.63;4.03;;;;;;;;;;5133180;27;20200;-33
2022/09/01 00:06:08;;;;;;;4.60;4.13;;;;;;;;;;5133709;27;20208;-34
2022/09/01 00:08:35;;;;;;;4.73;4.27;;;;;;;;;;5128706;27;20231;-33
2022/09/01 00:11:02;;;;;;;5.93;4.20;;;;;;;;;;5121238;27;20208;-36
2022/09/01 00:13:32;;;;;;;4.90;4.40;;;;;;;;;;5128337;27;20203;-33
2022/09/01 00:15:59;;;;;;;7.57;4.00;;;;;;;;;;5122055;27;20205;-32
2022/09/01 00:18:26;;;;;;;4.67;4.20;;;;;;;;;;5130737;27;20216;-31
2022/09/01 00:20:57;;;;;;;7.30;4.00;;;;;;;;;;5133798;27;20294;-34
2022/09/01 00:23:26;;;;;;;4.70;4.30;;;;;;;;;;5129717;27;20219;-32
2022/09/01 00:25:54;;;;;;;5.10;4.60;;;;;;;;;;5132515;27;20555;-34
2022/09/01 00:28:21;;;;;;;5.43;3.97;;;;;;;;;;5132269;27;20689;-32
2022/09/01 00:30:48;;;;;;;4.50;4.10;;;;;;;;;;5117425;27;20215;-32
2022/09/01 00:33:15;;;;;;;5.43;4.93;;;;;;;;;;5133401;27;20207;-32
2022/09/01 00:35:42;;;;;;;6.03;4.83;;;;;;;;;;5133058;27;20200;-34
2022/09/01 00:38:09;;;;;;;6.13;4.70;;;;;;;;;;5127840;27;20232;-32
2022/09/01 00:40:38;;;;;;;6.00;4.63;;;;;;;;;;5127556;27;20205;-34
2022/09/01 00:43:12;;;;;;;5.53;4.60;;;;;;;;;;5132775;27;20203;-36
2022/09/01 00:45:40;;;;;;;4.30;3.80;;;;;;;;;;5123896;27;20270;-34
2022/09/01 00:48:08;;;;;;;5.13;4.63;;;;;;;;;;5127745;27;20314;-34
2022/09/01 00:50:35;;;;;;;7.23;5.67;;;;;;;;;;5132776;27;20199;-34
2022/09/01 00:53:02;;;;;;;5.57;5.00;;;;;;;;;;5130711;27;20196;-32
2022/09/01 00:55:31;;;;;;;4.60;4.20;;;;;;;;;;5130639;27;20211;-33
2022/09/01 00:58:00;;;;;;;5.50;5.00;;;;;;;;;;5132221;27;20312;-32
2022/09/01 01:00:29;;;;;;;5.40;4.90;;;;;;;;;;5118523;27;20212;-30
2022/09/01 01:02:56;;;;;;;5.70;4.80;;;;;;;;;;5129755;27;20435;-31
2022/09/01 01:05:26;;;;;;;5.70;4.67;;;;;;;;;;5131173;27;20191;-35
2022/09/01 01:07:54;;;;;;;6.33;5.73;;;;;;;;;;5132772;27;20254;-33
2022/09/01 01:10:23;;;;;;;5.80;4.73;;;;;;;;;;5122122;27;20199;-33
2022/09/01 01:12:51;;;;;;;4.67;4.07;;;;;;;;;;5132195;27;20479;-32
2022/09/01 01:15:20;;;;;;;5.50;5.00;;;;;;;;;;5121539;27;20245;-34
2022/09/01 01:17:47;;;;;;;7.03;4.93;;;;;;;;;;5124944;27;20211;-33
2022/09/01 01:23:08;;;;;;;7.93;4.83;;;;;;;;;;5123618;27;20223;-33
2022/09/01 01:25:38;;;;;;;7.40;5.90;;;;;;;;;;5130651;27;20207;-35
2022/09/01 01:28:10;;;;;;;5.80;5.30;;;;;;;;;;5132358;27;20223;-33
2022/09/01 01:30:38;;;;;;;5.73;5.23;;;;;;;;;;5120546;27;20196;-31
2022/09/01 01:33:06;;;;;;;9.00;5.60;;;;;;;;;;5126518;27;20193;-34
2022/09/01 01:35:34;;;;;;;5.67;5.17;;;;;;;;;;5131041;27;20684;-36
2022/09/01 01:38:02;;;;;;;5.80;5.23;;;;;;;;;;5127420;27;20220;-33
2022/09/01 01:40:29;;;;;;;6.27;5.00;;;;;;;;;;5131095;27;20212;-37
2022/09/01 01:43:00;;;;;;;5.80;4.63;;;;;;;;;;5131789;27;20230;-30
2022/09/01 01:45:28;;;;;;;6.10;5.50;;;;;;;;;;5127696;27;20286;-35
2022/09/01 01:47:55;;;;;;;8.00;5.40;;;;;;;;;;5126537;27;20219;-34
2022/09/01 01:50:24;;;;;;;6.13;5.03;;;;;;;;;;5132569;27;20259;-34
2022/09/01 01:52:51;;;;;;;7.07;5.13;;;;;;;;;;5126079;27;20210;-30
2022/09/01 01:55:18;;;;;;;7.03;5.33;;;;;;;;;;5128184;27;20292;-34
2022/09/01 01:57:48;;;;;;;7.03;5.40;;;;;;;;;;5131416;27;20237;-34
2022/09/01 02:00:18;;;;;;;5.27;4.77;;;;;;;;;;5124501;27;20291;-33
2022/09/01 02:02:51;;;;;;;6.93;6.00;;;;;;;;;;5130089;27;20199;-32
2022/09/01 02:05:20;;;;;;;6.67;5.97;;;;;;;;;;5131687;27;20225;-37
2022/09/01 02:07:48;;;;;;;6.13;5.53;;;;;;;;;;5127482;27;20255;-32
2022/09/01 02:10:16;;;;;;;6.90;6.20;;;;;;;;;;5119357;27;20207;-36
2022/09/01 02:12:43;;;;;;;8.53;5.13;;;;;;;;;;5131904;27;20192;-33
2022/09/01 02:15:11;;;;;;;10.50;5.90;;;;;;;;;;5129862;27;20207;-33
2022/09/01 02:17:41;;;;;;;6.83;6.10;;;;;;;;;;5133862;27;20223;-34
2022/09/01 02:20:09;;;;;;;7.37;5.63;;;;;;;;;;5134418;27;20245;-34
2022/09/01 02:22:38;;;;;;;6.13;5.53;;;;;;;;;;5134222;27;20291;-34
2022/09/01 02:25:05;;;;;;;5.77;5.07;;;;;;;;;;5128991;27;20235;-33
2022/09/01 02:27:34;;;;;;;7.37;5.97;;;;;;;;;;5132399;27;20228;-34
2022/09/01 02:30:01;;;;;;;9.03;6.50;;;;;;;;;;5123392;27;20205;-34
2022/09/01 02:32:28;;;;;;;7.43;6.67;;;;;;;;;;5130716;27;20204;-34
2022/09/01 02:35:00;;;;;;;7.43;6.10;;;;;;;;;;5133349;27;20195;-32
2022/09/01 02:37:28;;;;;;;10.97;7.23;;;;;;;;;;5123246;27;20279;-31
2022/09/01 02:39:56;;;;;;;7.73;6.63;;;;;;;;;;5131255;27;20219;-34
2022/09/01 02:42:26;;;;;;;7.10;6.40;;;;;;;;;;5130862;27;20264;-33
2022/09/01 02:44:53;;;;;;;10.47;6.53;;;;;;;;;;5121471;27;20195;-31
2022/09/01 02:47:22;;;;;;;7.63;6.17;;;;;;;;;;5123242;27;20265;-31
2022/09/01 02:49:49;;;;;;;6.53;5.70;;;;;;;;;;5154186;22;20254;-91
2022/09/01 02:52:19;;;;;;;7.53;5.43;;;;;;;;;;5130546;27;20218;-91
2022/09/01 02:54:47;;;;;;;7.97;6.37;;;;;;;;;;5130426;27;20195;-91
2022/09/01 02:57:15;;;;;;;6.13;5.53;;;;;;;;;;5130357;27;20231;-91
2022/09/01 02:59:42;;;;;;;5.93;5.33;;;;;;;;;;5124140;27;20226;-92
2022/09/01 03:02:10;;;;;;;6.43;4.80;;;;;;;;;;5112786;28;20200;-92
2022/09/01 03:04:37;;;;;;;5.57;5.03;;;;;;;;;;5112959;28;20204;-91
2022/09/01 03:07:05;;;;;;;5.20;4.70;;;;;;;;;;5113096;28;20208;-91
2022/09/01 03:09:35;;;;;;;7.87;4.90;;;;;;;;;;5112321;28;20225;-91
2022/09/01 03:12:03;;;;;;;6.37;4.67;;;;;;;;;;5113041;28;20208;-91
2022/09/01 03:14:30;;;;;;;7.13;4.80;;;;;;;;;;5112395;28;20206;-91
2022/09/01 03:16:59;;;;;;;5.13;4.63;;;;;;;;;;5112642;28;20199;-91
2022/09/01 03:19:26;;;;;;;5.87;4.67;;;;;;;;;;5112418;28;20572;-92
2022/09/01 03:21:58;;;;;;;5.00;4.60;;;;;;;;;;5113601;28;20203;-91
2022/09/01 03:24:26;;;;;;;5.50;4.53;;;;;;;;;;5117075;28;20665;-91
2022/09/01 03:26:55;;;;;;;5.03;4.30;;;;;;;;;;5116363;28;20548;-91
2022/09/01 03:29:23;;;;;;;4.97;4.20;;;;;;;;;;5116593;28;20235;-91
2022/09/01 03:31:50;;;;;;;5.13;4.63;;;;;;;;;;5116926;28;20200;-92
2022/09/01 03:34:20;;;;;;;5.17;4.30;;;;;;;;;;5116836;28;20755;-91
2022/09/01 03:36:49;;;;;;;5.03;4.53;;;;;;;;;;5117046;28;20694;-92
2022/09/01 03:39:18;;;;;;;5.23;4.73;;;;;;;;;;5116682;28;20219;-92
2022/09/01 03:41:45;;;;;;;5.57;4.63;;;;;;;;;;5116849;28;20200;-91
2022/09/01 03:44:15;;;;;;;5.10;4.70;;;;;;;;;;5116291;28;20633;-91
2022/09/01 03:46:42;;;;;;;5.07;4.30;;;;;;;;;;5116920;28;20207;-90
2022/09/01 03:49:23;;;;;;;6.00;5.50;;;;;;;;;;5116425;28;20256;-91
2022/09/01 03:51:52;;;;;;;6.17;5.50;;;;;;;;;;5112647;28;20256;-91
2022/09/01 03:54:23;;;;;;;6.37;5.33;;;;;;;;;;5116162;28;20196;-92
2022/09/01 03:56:50;;;;;;;5.80;5.20;;;;;;;;;;5116282;28;20829;-91
2022/09/01 03:59:21;;;;;;;6.53;5.90;;;;;;;;;;5116353;28;20216;-91
2022/09/01 04:01:48;;;;;;;7.03;5.13;;;;;;;;;;5116343;28;20207;-91
2022/09/01 04:04:15;;;;;;;6.00;4.80;;;;;;;;;;5116478;28;20270;-91
2022/09/01 04:06:43;;;;;;;9.83;5.40;;;;;;;;;;5116223;28;20212;-92
2022/09/01 04:09:11;;;;;;;6.37;5.00;;;;;;;;;;5116141;28;20220;-91
2022/09/01 04:11:40;;;;;;;6.17;4.20;;;;;;;;;;5116310;28;20203;-91
2022/09/01 04:14:07;;;;;;;6.23;4.90;;;;;;;;;;5116019;28;20287;-92
2022/09/01 04:19:25;;;;;;;6.00;5.40;;;;;;;;;;5115868;28;20227;-91
2022/09/01 04:21:53;;;;;;;5.07;4.60;;;;;;;;;;5115846;28;20254;-91
2022/09/01 04:24:23;;;;;;;6.77;5.57;;;;;;;;;;5115968;28;20200;-92
2022/09/01 04:26:51;;;;;;;6.40;5.80;;;;;;;;;;5115583;28;20200;-92
2022/09/01 04:29:25;;;;;;;6.60;5.53;;;;;;;;;;5115515;28;20224;-92
2022/09/01 04:31:54;;;;;;;7.90;5.50;;;;;;;;;;5116080;28;20272;-92
2022/09/01 04:34:23;;;;;;;6.53;5.43;;;;;;;;;;5114841;28;20200;-91
2022/09/01 04:36:52;;;;;;;6.20;4.63;;;;;;;;;;5115585;28;20651;-91
2022/09/01 04:39:19;;;;;;;7.17;5.47;;;;;;;;;;5115697;28;20235;-92
2022/09/01 04:41:48;;;;;;;6.33;5.50;;;;;;;;;;5115445;28;20649;-91
2022/09/01 04:44:15;;;;;;;7.37;6.27;;;;;;;;;;5115734;28;20207;-91
2022/09/01 04:46:45;;;;;;;7.57;6.83;;;;;;;;;;5115550;28;20215;-91
2022/09/01 04:49:18;;;;;;;9.80;6.60;;;;;;;;;;5115065;28;20935;-92
2022/09/01 04:51:46;;;;;;;6.67;5.97;;;;;;;;;;5115441;28;20856;-92
2022/09/01 04:54:15;;;;;;;7.37;5.87;;;;;;;;;;5107970;28;20212;-92
2022/09/01 04:56:43;;;;;;;8.60;6.87;;;;;;;;;;5095119;28;20212;-91
2022/09/01 04:59:10;;;;;;;10.33;7.07;;;;;;;;;;5095059;28;20188;-91
2022/09/01 05:01:43;;;;;;;5.03;4.60;;;;;;;;;;5094550;28;20274;-92
2022/09/01 05:04:11;;;;;;;5.97;4.77;;;;;;;;;;5094453;28;20743;-91
2022/09/01 05:06:41;;;;;;;5.90;5.30;;;;;;;;;;5094625;28;20215;-91
2022/09/01 05:09:09;;;;;;;6.60;5.37;;;;;;;;;;5094483;28;20259;-91
2022/09/01 05:11:37;;;;;;;7.13;5.63;;;;;;;;;;5094674;28;20215;-92
2022/09/01 05:16:46;;;;;;;6.30;5.70;;;;;;;;;;5099419;28;20599;-91
2022/09/01 05:19:14;;;;;;;8.90;6.60;;;;;;;;;;5094590;28;20210;-92
2022/09/01 05:21:44;;;;;;;6.93;6.23;;;;;;;;;;5096445;28;20207;-91
2022/09/01 05:24:13;;;;;;;7.07;6.30;;;;;;;;;;5093293;28;20206;-92
2022/09/01 05:26:43;;;;;;;6.73;5.13;;;;;;;;;;5093509;28;20262;-92
2022/09/01 05:29:12;;;;;;;7.47;6.20;;;;;;;;;;5094270;28;20231;-92
2022/09/01 05:31:40;;;;;;;6.83;6.13;;;;;;;;;;5094405;28;20209;-93
2022/09/01 05:34:08;;;;;;;5.93;5.33;;;;;;;;;;5094705;28;20204;-92
2022/09/01 05:36:36;;;;;;;7.70;6.87;;;;;;;;;;5096911;28;20217;-92
2022/09/01 05:39:05;;;;;;;9.60;6.53;;;;;;;;;;5091058;28;20196;-92
2022/09/01 05:41:34;;;;;;;6.50;5.87;;;;;;;;;;5108259;28;20206;-93
2022/09/01 05:44:03;;;;;;;6.67;5.97;;;;;;;;;;5102704;28;20249;-91
2022/09/01 05:46:30;;;;;;;7.23;6.10;;;;;;;;;;5092525;28;20208;-92
2022/09/01 05:48:58;;;;;;;6.50;5.77;;;;;;;;;;5098539;28;20307;-94
2022/09/01 05:51:26;;;;;;;6.77;5.43;;;;;;;;;;5119205;28;20306;-94
2022/09/01 05:53:57;;;;;;;7.03;6.33;;;;;;;;;;5124646;28;20199;-93
2022/09/01 05:56:26;;;;;;;9.60;7.00;;;;;;;;;;5127555;28;20199;-93
2022/09/01 05:58:54;;;;;;;10.43;6.70;;;;;;;;;;5127648;28;20290;-95
2022/09/01 06:01:23;;;;;;;7.13;6.43;;;;;;;;;;5132396;28;20271;-94
2022/09/01 06:03:53;;;;;;;8.00;7.07;;;;;;;;;;5105256;28;20204;-94
2022/09/01 06:06:21;;;;;;;7.57;6.83;;;;;;;;;;5101681;28;20261;-94
2022/09/01 06:08:49;;;;;;;8.77;7.27;;;;;;;;;;5103555;28;20226;-94
2022/09/01 06:11:16;;;;;;;8.33;6.90;;;;;;;;;;5118095;28;20282;-94
2022/09/01 06:16:41;;;;;;;8.13;7.33;;;;;;;;;;5118200;28;20204;-93
2022/09/01 06:19:09;;;;;;;6.33;5.73;;;;;;;;;;5119006;28;20200;-93
2022/09/01 06:21:36;;;;;;;10.57;7.13;;;;;;;;;;5117936;28;20231;-93
2022/09/01 06:24:05;;;;;;;7.33;6.63;;;;;;;;;;5118527;28;20227;-93
2022/09/01 06:26:34;;;;;;;11.57;7.23;;;;;;;;;;5116720;28;20208;-94
2022/09/01 06:29:03;;;;;;;7.23;6.37;;;;;;;;;;5116774;28;20226;-93
2022/09/01 06:31:32;;;;;;;9.43;6.13;;;;;;;;;;5115833;28;20196;-93
2022/09/01 06:34:04;;;;;;;7.70;6.93;;;;;;;;;;5116294;28;20211;-93
2022/09/01 06:36:32;;;;;;;7.83;5.93;;;;;;;;;;5115509;28;20231;-93
2022/09/01 06:39:00;;;;;;;6.23;5.63;;;;;;;;;;5114613;28;20203;-93
2022/09/01 06:41:28;;;;;;;8.73;6.20;;;;;;;;;;5114608;28;20208;-93
2022/09/01 06:43:55;;;;;;;6.10;5.50;;;;;;;;;;5115251;28;20218;-93
2022/09/01 06:46:26;;;;;;;6.50;5.90;;;;;;;;;;5113983;28;20277;-93
2022/09/01 06:48:57;;;;;;;5.87;5.27;;;;;;;;;;5112909;28;20588;-93
2022/09/01 06:51:28;;;;;;;6.13;5.30;;;;;;;;;;5129942;27;20680;-93
2022/09/01 06:53:58;;;;;;;6.07;5.47;;;;;;;;;;5124691;27;20195;-93
2022/09/01 06:56:28;;;;;;;9.90;6.37;;;;;;;;;;5133231;27;20223;-93
2022/09/01 06:58:56;;;;;;;9.43;5.93;;;;;;;;;;5133713;27;20361;-94
2022/09/01 07:01:26;;;;;;;7.33;6.53;;;;;;;;;;5117319;27;20603;-93
2022/09/01 07:03:54;;;;;;;6.07;5.33;;;;;;;;;;5133889;27;20211;-93
2022/09/01 07:06:23;;;;;;;7.30;6.00;;;;;;;;;;5134051;27;20207;-93
2022/09/01 07:08:53;;;;;;;6.60;5.90;;;;;;;;;;5133698;27;20245;-93
2022/09/01 07:11:26;;;;;;;8.60;6.90;;;;;;;;;;5134021;27;20227;-94
2022/09/01 07:13:54;;;;;;;7.07;6.10;;;;;;;;;;5134741;27;20225;-93
2022/09/01 07:16:23;;;;;;;9.47;7.17;;;;;;;;;;5120207;28;20289;-94
2022/09/01 07:18:50;;;;;;;8.87;6.77;;;;;;;;;;5140959;28;20360;-93
2022/09/01 07:21:18;;;;;;;7.53;6.83;;;;;;;;;;5136633;27;20311;-93
2022/09/01 07:23:45;;;;;;;7.83;6.70;;;;;;;;;;5127594;28;20201;-94
2022/09/01 07:26:16;;;;;;;7.63;6.83;;;;;;;;;;5127383;28;20201;-93
2022/09/01 07:28:45;;;;;;;6.70;6.10;;;;;;;;;;5112334;28;20226;-94
2022/09/01 07:31:19;;;;;;;8.33;6.17;;;;;;;;;;5118889;28;20224;-94
2022/09/01 07:33:47;;;;;;;6.80;6.17;;;;;;;;;;5132586;28;20250;-93
2022/09/01 07:36:15;;;;;;;6.40;5.40;;;;;;;;;;5135352;28;20212;-93
2022/09/01 07:38:42;;;;;;;6.63;6.03;;;;;;;;;;5134288;28;20216;-93
2022/09/01 07:41:11;;;;;;;7.67;5.90;;;;;;;;;;5132559;28;20233;-93
2022/09/01 07:43:41;;;;;;;12.73;7.10;;;;;;;;;;5138541;28;20236;-93
2022/09/01 07:46:08;;;;;;;7.53;6.43;;;;;;;;;;5137053;28;20215;-93
2022/09/01 07:48:36;;;;;;;6.77;5.97;;;;;;;;;;5125728;28;20200;-93
2022/09/01 07:51:03;;;;;;;6.97;6.10;;;;;;;;;;5114825;28;20226;-92
2022/09/01 07:53:31;;;;;;;6.23;5.63;;;;;;;;;;5097921;28;20202;-93
2022/09/01 07:56:00;;;;;;;10.43;6.57;;;;;;;;;;5116777;28;20202;-92
2022/09/01 07:58:28;;;;;;;7.00;6.30;;;;;;;;;;5115485;28;20788;-92
2022/09/01 08:01:01;;;;;;;7.60;6.77;;;;;;;;;;5116193;28;20256;-92
2022/09/01 08:03:29;;;;;;;6.10;5.23;;;;;;;;;;5111418;28;20213;-93
2022/09/01 08:05:59;;;;;;;6.07;5.47;;;;;;;;;;5098146;28;20613;-92
2022/09/01 08:08:27;;;;;;;5.97;5.37;;;;;;;;;;5099434;28;20202;-93
2022/09/01 08:11:03;;;;;;;7.33;6.00;;;;;;;;;;5111786;28;20275;-93
2022/09/01 08:13:30;;;;;;;6.33;5.73;;;;;;;;;;5117739;28;20213;-93
2022/09/01 08:15:59;;;;;;;7.10;5.80;;;;;;;;;;5116829;28;20205;-93
2022/09/01 08:18:26;;;;;;;7.27;6.30;;;;;;;;;;5117100;28;20208;-93
2022/09/01 08:20:53;;;;;;;7.00;6.30;;;;;;;;;;5117103;28;20280;-93
2022/09/01 08:23:25;;;;;;;6.67;6.07;;;;;;;;;;5117314;28;20296;-94
2022/09/01 08:25:52;;;;;;;7.00;6.27;;;;;;;;;;5118278;28;20370;-93
2022/09/01 08:28:20;;;;;;;7.13;6.23;;;;;;;;;;5115749;28;20696;-92
2022/09/01 08:30:51;;;;;;;6.50;5.87;;;;;;;;;;5116032;28;20223;-93
2022/09/01 08:33:20;;;;;;;6.77;6.07;;;;;;;;;;5117481;28;20197;-94
2022/09/01 08:35:49;;;;;;;5.97;5.37;;;;;;;;;;5116307;28;20213;-94
2022/09/01 08:38:16;;;;;;;5.80;5.17;;;;;;;;;;5114873;28;20751;-93
2022/09/01 08:40:43;;;;;;;7.83;4.13;;;;;;;;;;5114233;28;20242;-93
2022/09/01 08:43:17;;;;;;;4.27;3.87;;;;;;;;;;5110632;28;20222;-94
2022/09/01 08:45:48;;;;;;;4.00;3.70;;;;;;;;;;5117471;28;20206;-94
2022/09/01 08:48:16;;;;;;;7.67;3.80;;;;;;;;;;5101977;28;20197;-93
2022/09/01 08:50:46;;;;;;;3.70;3.40;;;;;;;;;;5108090;28;20224;-93
2022/09/01 08:53:16;;;;;;;3.70;3.10;;;;;;;;;;5118663;28;20205;-94
2022/09/01 08:55:48;;;;;;;4.67;3.80;;;;;;;;;;5120517;28;20210;-94
2022/09/01 08:58:17;;;;;;;4.00;3.67;;;;;;;;;;5118584;28;20725;-95
2022/09/01 09:00:45;;;;;;;4.07;3.73;;;;;;;;;;5115442;28;20227;-94
2022/09/01 09:03:19;;;;;;;4.23;3.60;;;;;;;;;;5114990;28;20210;-95
2022/09/01 09:05:57;;;;;;;3.67;3.37;;;;;;;;;;5114378;28;20204;-94
2022/09/01 09:08:40;;;;;;;4.27;3.20;;;;;;;;;;5116691;28;20201;-93
2022/09/01 09:11:19;;;;;;;4.00;3.70;;;;;;;;;;5114673;28;20233;-95
2022/09/01 09:13:52;;;;;;;3.50;3.20;;;;;;;;;;5115596;28;20204;-95
2022/09/01 09:16:23;;;;;;;3.80;3.40;;;;;;;;;;5115129;28;20211;-95
2022/09/01 09:18:53;;;;;;;5.17;3.30;;;;;;;;;;5115166;28;20574;-94
2022/09/01 09:21:25;;;;;;;3.50;3.20;;;;;;;;;;5112694;28;20228;-94
2022/09/01 09:23:58;;;;;;;4.43;3.40;;;;;;;;;;5110137;28;20288;-94
2022/09/01 09:26:26;;;;;;;3.47;3.20;;;;;;;;;;5113166;28;20206;-94
2022/09/01 09:28:56;;;;;;;4.03;3.47;;;;;;;;;;5113987;28;20213;-94
2022/09/01 09:31:28;;;;;;;3.20;3.00;;;;;;;;;;5112936;28;20690;-93
2022/09/01 09:33:56;;;;;;;4.20;3.53;;;;;;;;;;5114728;28;20236;-93
2022/09/01 09:36:31;;;;;;;3.20;2.90;;;;;;;;;;5114196;28;20213;-94
2022/09/01 09:39:09;;;;;;;3.47;3.17;;;;;;;;;;5115987;28;20225;-94
2022/09/01 09:41:37;;;;;;;4.77;3.50;;;;;;;;;;5119619;28;20261;-95
2022/09/01 09:44:06;;;;;;;3.07;2.70;;;;;;;;;;5127815;27;20203;-94
2022/09/01 09:46:37;;;;;;;3.80;3.00;;;;;;;;;;5132486;27;20220;-95
2022/09/01 09:49:13;;;;;;;3.00;2.80;;;;;;;;;;5129748;27;20231;-94
2022/09/01 09:51:43;;;;;;;2.93;2.73;;;;;;;;;;5130274;27;20274;-96
2022/09/01 09:54:13;;;;;;;3.13;2.93;;;;;;;;;;5132927;27;20193;-95
2022/09/01 09:56:43;;;;;;;3.17;2.87;;;;;;;;;;5126572;27;20268;-96
2022/09/01 09:59:22;;;;;;;3.47;3.17;;;;;;;;;;5131706;27;20215;-94
2022/09/01 10:01:52;;;;;;;4.33;3.10;;;;;;;;;;5129106;27;20184;-94
2022/09/01 10:04:43;;;;;;;4.93;3.40;;;;;;;;;;5129783;27;20202;-94
2022/09/01 10:07:29;;;;;;;4.20;3.13;;;;;;;;;;5112463;28;20490;-95
2022/09/01 10:09:59;;;;;;;4.23;3.10;;;;;;;;;;5106811;28;20258;-94
2022/09/01 10:12:27;;;;;;;2.67;2.47;;;;;;;;;;5102639;28;20204;-94
2022/09/01 10:14:56;;;;;;;3.13;2.93;;;;;;;;;;5101284;28;20207;-94
2022/09/01 10:17:26;;;;;;;3.00;2.80;;;;;;;;;;5100596;28;20219;-95
2022/09/01 10:28:58;;;;;;;3.03;2.83;;;;;;;;;;5132054;22;20269;-39
2022/09/01 10:31:59;;;;;;;2.73;2.53;;;;;;;;;;5100623;28;20221;-46
2022/09/01 10:34:55;;;;;;;3.13;2.93;;;;;;;;;;5113791;28;20283;-41
2022/09/01 10:37:49;;;;;;;3.90;3.47;;;;;;;;;;5111014;28;20239;-44
2022/09/01 10:40:46;;;;;;;2.73;2.53;;;;;;;;;;5112004;27;20205;-42
2022/09/01 10:49:55;;;;;;;3.10;2.90;;;;;;;;;;5113868;28;20206;-42
2022/09/01 10:52:58;;;;;;;2.90;2.70;;;;;;;;;;5110979;28;20197;-42
2022/09/01 10:56:00;;;;;;;3.53;3.00;;;;;;;;;;5110451;28;20198;-45
2022/09/01 11:07:30;;;;;;;3.30;3.00;;;;;;;;;;5118005;22;20294;-39
2022/09/01 11:10:29;;;;;;;3.77;3.47;;;;;;;;;;5115399;27;20213;-41
2022/09/01 11:13:33;;;;;;;3.00;2.33;;;;;;;;;;5110656;28;20205;-42
2022/09/01 11:16:46;;;;;;;6.97;3.20;;;;;;;;;;5104099;28;20217;-42
2022/09/01 11:19:54;;;;;;;3.23;3.03;;;;;;;;;;5031335;28;20219;-44
2022/09/01 11:22:42;;;;;;;3.37;3.07;;;;;;;;;;5095485;28;20199;-42
2022/09/01 11:25:57;;;;;;;5.47;2.87;;;;;;;;;;5085996;28;20570;-43
2022/09/01 11:28:55;;;;;;;3.20;3.00;;;;;;;;;;5145665;22;20295;-45
2022/09/01 11:32:02;;;;;;;3.03;2.83;;;;;;;;;;5141404;27;20316;-46
2022/09/01 11:37:34;;;;;;;2.93;2.60;;;;;;;;;;5144143;27;20230;-45
2022/09/01 11:47:03;;;;;;;4.50;2.70;;;;;;;;;;5140112;27;20315;-46
2022/09/01 11:50:01;;;;;;;3.05;2.85;;;;;;;;;;5144452;27;20252;-44
2022/09/01 12:06:35;;;;;;;3.10;2.90;;;;;;;;;;5116528;28;20223;-42
2022/09/01 12:09:30;;;;;;;3.07;2.80;;;;;;;;;;5092196;28;20213;-45
2022/09/01 12:15:18;;;;;;;3.47;3.27;;;;;;;;;;5077507;28;20219;-45
2022/09/01 12:18:17;;;;;;;4.30;3.20;;;;;;;;;;5088910;28;20239;-42
2022/09/01 12:21:04;;;;;;;3.40;3.10;;;;;;;;;;5097868;28;20242;-43
2022/09/01 12:23:53;;;;;;;3.23;3.00;;;;;;;;;;5095941;28;20221;-43
2022/09/01 12:26:45;;;;;;;6.13;3.47;;;;;;;;;;5076158;28;20205;-46
2022/09/01 12:29:23;;;;;;;3.00;2.80;;;;;;;;;;5077177;28;20208;-43
2022/09/01 12:31:58;;;;;;;3.20;2.90;;;;;;;;;;5089341;28;20231;-43
2022/09/01 12:34:46;;;;;;;3.10;2.90;;;;;;;;;;5097030;28;20206;-43
2022/09/01 12:37:29;;;;;;;3.30;3.00;;;;;;;;;;5096232;28;20234;-44
2022/09/01 12:40:10;;;;;;;3.57;3.23;;;;;;;;;;5094559;28;20215;-43
2022/09/01 12:42:43;;;;;;;3.27;2.97;;;;;;;;;;5096938;28;20207;-42
2022/09/01 12:45:48;;;;;;;3.03;2.83;;;;;;;;;;5092624;28;20284;-42
2022/09/01 12:49:02;;;;;;;3.17;2.97;;;;;;;;;;5086273;28;20224;-40
2022/09/01 12:51:39;;;;;;;3.00;2.80;;;;;;;;;;5093864;28;20231;-40
2022/09/01 12:54:19;;;;;;;2.97;2.77;;;;;;;;;;5095967;28;20265;-46
2022/09/01 12:57:06;;;;;;;2.87;2.67;;;;;;;;;;5096860;28;20207;-45
2022/09/01 13:02:48;;;;;;;3.20;2.93;;;;;;;;;;5079895;28;20223;-46
2022/09/01 13:27:01;;;;;;;3.30;3.10;;;;;;;;;;5115797;28;20573;-46
2022/09/01 13:30:14;;;;;;;2.90;2.70;;;;;;;;;;5104163;28;20226;-47
2022/09/01 13:36:18;;;;;;;3.00;2.80;;;;;;;;;;5092539;28;20226;-44
2022/09/01 13:39:03;;;;;;;2.80;2.60;;;;;;;;;;5110593;28;20231;-44
2022/09/01 13:44:35;;;;;;;2.70;2.47;;;;;;;;;;5110853;28;20238;-43
2022/09/01 13:55:40;;;;;;;3.87;2.20;;;;;;;;;;5147208;27;20232;-36
2022/09/01 13:58:29;;;;;;;2.50;2.30;;;;;;;;;;5122335;27;20231;-34
2022/09/01 14:04:45;;;;;;;2.80;2.33;;;;;;;;;;5120682;27;20202;-38
2022/09/01 14:11:03;;;;;;;2.05;1.95;;;;;;;;;;5127035;27;20206;-37
2022/09/01 14:14:05;;;;;;;2.63;2.45;;;;;;;;;;5132275;27;20202;-35
2022/09/01 14:16:46;;;;;;;2.60;2.40;;;;;;;;;;5131820;27;20195;-36
2022/09/01 14:19:28;;;;;;;2.47;2.33;;;;;;;;;;5128763;27;20204;-32
2022/09/01 14:22:18;;;;;;;2.10;2.00;;;;;;;;;;5116908;27;20206;-34
2022/09/01 14:25:04;;;;;;;2.30;2.20;;;;;;;;;;5125938;27;20260;-33
2022/09/01 14:27:37;;;;;;;2.30;2.20;;;;;;;;;;5114977;28;20227;-35
2022/09/01 14:30:23;;;;;;;2.10;2.00;;;;;;;;;;5117802;27;20211;-35
2022/09/01 14:33:08;;;;;;;2.00;1.90;;;;;;;;;;5111706;28;20293;-33
2022/09/01 14:52:36;;;;;;;2.55;2.35;;;;;;;;;;5134741;27;20298;-34
2022/09/01 14:55:28;;;;;;;3.50;2.37;;;;;;;;;;5127165;27;20203;-36
2022/09/01 14:58:17;;;;;;;3.00;2.30;;;;;;;;;;5123246;27;20303;-38
2022/09/01 15:00:59;;;;;;;2.10;2.00;;;;;;;;;;5120752;27;20227;-38
2022/09/01 15:09:36;;;;;;;2.30;2.10;;;;;;;;;;5177326;22;20235;-35
2022/09/01 15:12:23;;;;;;;2.58;2.38;;;;;;;;;;5118873;27;20268;-35
2022/09/01 15:15:11;;;;;;;2.53;2.33;;;;;;;;;;5123314;27;20305;-36
2022/09/01 15:17:56;;;;;;;2.50;2.30;;;;;;;;;;5134066;27;20223;-34
2022/09/01 15:23:40;;;;;;;2.40;2.30;;;;;;;;;;5126668;28;20407;-36
2022/09/01 15:26:23;;;;;;;3.07;2.13;;;;;;;;;;5127960;28;20195;-37
2022/09/01 15:29:17;;;;;;;4.60;2.13;;;;;;;;;;5131066;27;20302;-34
2022/09/01 15:32:09;;;;;;;2.60;2.40;;;;;;;;;;5133265;28;20279;-34
2022/09/01 15:34:55;;;;;;;2.40;2.20;;;;;;;;;;5135469;28;20203;-36
2022/09/01 15:37:33;;;;;;;4.10;2.67;;;;;;;;;;5132097;27;20226;-39
2022/09/01 15:40:21;;;;;;;2.23;2.13;;;;;;;;;;5127765;28;20290;-39
2022/09/01 15:43:20;;;;;;;2.40;2.30;;;;;;;;;;5135095;28;20686;-38
2022/09/01 15:45:54;;;;;;;2.43;2.30;;;;;;;;;;5127719;28;20261;-31
2022/09/01 15:49:03;;;;;;;;;;;;;;;;;;;;;
2022/09/01 15:51:51;;;;;;;4.50;2.90;;;;;;;;;;5128345;28;20219;-32
2022/09/01 15:59:44;;;;;;;2.63;2.43;;;;;;;;;;5125608;27;20208;-36
2022/09/01 16:17:05;;;;;;;2.50;2.40;;;;;;;;;;5098914;28;20298;-34
2022/09/01 16:22:20;;;;;;;3.87;2.77;;;;;;;;;;5308198;22;20290;-31
2022/09/01 16:24:48;;;;;;;3.00;2.73;;;;;;;;;;5120315;28;20203;-31
2022/09/01 16:27:16;;;;;;;2.40;2.30;;;;;;;;;;5106739;28;20228;-33
2022/09/01 16:29:45;;;;;;;2.30;2.20;;;;;;;;;;5092833;28;20665;-34
2022/09/01 16:32:13;;;;;;;2.45;2.35;;;;;;;;;;5096164;28;20221;-31
2022/09/01 16:34:45;;;;;;;2.53;2.40;;;;;;;;;;5106353;28;20195;-35
2022/09/01 16:37:16;;;;;;;3.17;2.17;;;;;;;;;;5108247;28;20318;-33
2022/09/01 16:39:47;;;;;;;3.33;2.20;;;;;;;;;;5094672;28;20204;-31
2022/09/01 16:42:21;;;;;;;3.13;2.30;;;;;;;;;;5100318;28;20200;-35
2022/09/01 16:44:56;;;;;;;2.13;2.00;;;;;;;;;;5098727;28;20210;-35
2022/09/01 16:47:32;;;;;;;3.37;2.00;;;;;;;;;;5098727;28;20230;-32
2022/09/01 16:50:04;;;;;;;1.90;1.80;;;;;;;;;;5107545;28;20331;-37
2022/09/01 16:52:39;;;;;;;2.10;1.90;;;;;;;;;;5107948;28;20243;-37
2022/09/01 16:55:17;;;;;;;2.27;2.00;;;;;;;;;;5101035;28;20226;-33
2022/09/01 16:57:53;;;;;;;2.07;1.87;;;;;;;;;;5106314;28;20235;-36
2022/09/01 17:00:21;;;;;;;3.43;2.13;;;;;;;;;;5105937;28;20214;-34
2022/09/01 17:02:51;;;;;;;4.30;1.93;;;;;;;;;;5111205;28;20208;-33
2022/09/01 17:05:23;;;;;;;6.03;2.07;;;;;;;;;;5094344;28;20204;-32
2022/09/01 17:07:52;;;;;;;2.87;1.70;;;;;;;;;;5096265;28;20253;-33
2022/09/01 17:10:39;;;;;;;2.17;1.97;;;;;;;;;;5106966;28;20215;-34
2022/09/01 17:13:15;;;;;;;2.50;2.30;;;;;;;;;;5094360;28;20219;-34
2022/09/01 17:15:42;;;;;;;2.17;2.00;;;;;;;;;;5095469;28;20207;-35
2022/09/01 17:18:12;;;;;;;1.93;1.83;;;;;;;;;;5108990;28;20268;-31
2022/09/01 17:20:41;;;;;;;2.30;1.90;;;;;;;;;;5112467;28;20229;-37
2022/09/01 17:23:11;;;;;;;3.20;2.60;;;;;;;;;;5114439;28;20198;-33
2022/09/01 17:25:40;;;;;;;3.77;3.23;;;;;;;;;;5107116;28;20235;-32
2022/09/01 17:28:11;;;;;;;4.00;3.00;;;;;;;;;;5100124;28;20223;-31
2022/09/01 17:30:42;;;;;;;17.23;10.73;;;;;;;;;;5103171;28;20210;-33
2022/09/01 17:33:15;;;;;;;7.27;4.03;;;;;;;;;;5108080;28;20223;-31
2022/09/01 17:35:46;;;;;;;2.17;2.07;;;;;;;;;;5114521;28;20255;-34
2022/09/01 17:38:20;;;;;;;3.33;2.40;;;;;;;;;;5097073;28;20228;-33
2022/09/01 17:40:52;;;;;;;3.63;2.50;;;;;;;;;;5091774;28;20303;-32
2022/09/01 17:43:24;;;;;;;2.77;2.57;;;;;;;;;;5091645;28;20291;-33
2022/09/01 17:45:56;;;;;;;2.80;2.60;;;;;;;;;;5099311;28;20212;-33
2022/09/01 17:48:31;;;;;;;2.93;2.23;;;;;;;;;;5093075;28;20221;-34
2022/09/01 17:51:04;;;;;;;2.40;2.20;;;;;;;;;;5094161;28;20197;-32
2022/09/01 17:53:36;;;;;;;2.17;2.07;;;;;;;;;;5101985;28;20215;-32
2022/09/01 17:56:07;;;;;;;2.37;2.17;;;;;;;;;;5101454;28;20210;-33
2022/09/01 17:58:44;;;;;;;2.20;2.10;;;;;;;;;;5092725;28;20223;-31